Terminal Aerodrome Forecast
Issued by NWS Tuscon, AZ

Home | Current Version | Previous Version | Text Only | Print | Product List | Glossary On
Versions: 1 2 3 4 5 6 7 8 9 10 11 12
000
FTUS45 KTWC 262300
TAFDUG
TAF
KDUG 262320Z 2700/2724 12008KT P6SM VCSH BKN050 OVC080
     FM270400 07006KT P6SM VCSH BKN040 OVC060
     FM270800 VRB04KT P6SM BKN035 BKN060
     FM272000 23005KT P6SM SCT035 SCT060=

USA.gov is the U.S. government's official web portal to all federal, state and local government web resources and services.